Time;durP1;ratioP1;P1;durP2;ratioP2;P2;SDS_P1;SDS_P2;PMS_P1;PMS_P2;Temp;Humidity;BMP_temperature;BMP_pressure;BME280_temperature;BME280_humidity;BME280_pressure;Samples;Min_cycle;Max_cycle;Signal;HPM_P1;HPM_P2
2021/01/20 00:00:42;;;;;;;3.53;2.08;;;;;;;4.17;57.65;100042.88;5011394;28;20044;-72
2021/01/20 00:03:08;;;;;;;3.67;2.00;;;;;;;4.17;57.38;100045.50;5013348;28;20026;-72
2021/01/20 00:05:33;;;;;;;3.30;2.20;;;;;;;4.32;56.71;100043.47;5013550;28;20590;-72
2021/01/20 00:07:58;;;;;;;2.65;1.83;;;;;;;4.22;56.96;100031.09;5012799;28;20026;-72
2021/01/20 00:10:23;;;;;;;3.35;2.13;;;;;;;4.24;56.89;100028.34;5014671;28;20053;-71
2021/01/20 00:12:49;;;;;;;3.55;2.30;;;;;;;4.24;57.09;100021.34;5018348;28;20402;-72
2021/01/20 00:15:25;;;;;;;3.72;2.35;;;;;;;4.20;57.10;100024.34;5012020;28;20021;-72
2021/01/20 00:17:50;;;;;;;4.50;2.40;;;;;;;4.15;56.99;100029.94;5013622;28;20017;-72
2021/01/20 00:20:16;;;;;;;5.47;2.53;;;;;;;4.35;56.52;100015.22;5012936;28;20035;-72
2021/01/20 00:22:42;;;;;;;3.88;2.17;;;;;;;4.22;56.79;100011.97;5012980;28;20038;-72
2021/01/20 00:25:09;;;;;;;3.60;2.17;;;;;;;4.18;57.51;100013.16;5011700;28;20028;-72
2021/01/20 00:27:34;;;;;;;7.72;2.60;;;;;;;4.21;56.92;100010.28;5013231;28;20076;-72
2021/01/20 00:30:00;;;;;;;5.97;2.95;;;;;;;4.26;57.01;100001.09;5014080;28;20104;-72
2021/01/20 00:32:25;;;;;;;4.03;2.00;;;;;;;4.33;56.40;99996.19;5012321;28;20061;-72
2021/01/20 00:34:50;;;;;;;3.42;2.20;;;;;;;4.31;56.51;99992.88;5011875;28;20382;-72
2021/01/20 00:37:16;;;;;;;3.47;2.00;;;;;;;4.36;56.49;99998.59;5012516;28;20048;-72
2021/01/20 00:39:41;;;;;;;3.40;1.90;;;;;;;4.42;56.06;99984.16;5011531;28;20077;-72
2021/01/20 00:42:06;;;;;;;3.88;2.22;;;;;;;4.47;55.78;99982.00;5006068;28;20038;-72
2021/01/20 00:44:31;;;;;;;3.55;2.00;;;;;;;4.49;56.04;99984.50;5009516;28;20522;-72
2021/01/20 00:46:57;;;;;;;3.47;1.83;;;;;;;4.39;56.43;99985.25;5011867;28;20483;-72
2021/01/20 00:49:22;;;;;;;4.38;2.75;;;;;;;4.70;54.83;99982.72;5012172;28;20022;-72
2021/01/20 00:51:48;;;;;;;3.78;1.92;;;;;;;4.56;55.61;99983.03;5012159;28;20030;-72
2021/01/20 00:54:13;;;;;;;2.80;1.98;;;;;;;4.58;55.62;99979.31;5012404;28;20478;-73
2021/01/20 00:56:38;;;;;;;3.20;1.70;;;;;;;4.47;56.19;99982.81;5012911;28;20036;-72
2021/01/20 00:59:04;;;;;;;3.20;1.85;;;;;;;4.44;56.38;99975.22;5011364;28;20431;-72
2021/01/20 01:01:29;;;;;;;4.63;2.08;;;;;;;4.45;56.51;99976.88;5011044;28;20062;-72
2021/01/20 01:03:54;;;;;;;3.45;2.00;;;;;;;4.51;56.00;99966.88;5012093;28;20053;-72
2021/01/20 01:06:20;;;;;;;4.90;2.30;;;;;;;4.65;55.51;99974.41;5011323;28;20041;-72
2021/01/20 01:08:45;;;;;;;3.05;2.20;;;;;;;4.78;55.01;99972.41;5012077;28;20112;-72
2021/01/20 01:11:10;;;;;;;4.68;2.40;;;;;;;4.75;54.93;99972.69;5005093;28;20072;-72
2021/01/20 01:13:35;;;;;;;2.75;1.83;;;;;;;4.78;55.13;99972.41;5012443;28;20113;-72
2021/01/20 01:16:01;;;;;;;3.42;2.05;;;;;;;4.83;54.63;99966.81;5012290;28;20029;-72
2021/01/20 01:18:26;;;;;;;4.75;2.30;;;;;;;4.98;54.17;99976.00;5012755;28;20026;-72
2021/01/20 01:20:51;;;;;;;2.95;1.88;;;;;;;4.80;55.14;99967.06;5011311;28;20025;-72
2021/01/20 01:23:17;;;;;;;3.88;2.10;;;;;;;4.85;54.93;99959.66;5012105;28;20022;-72
2021/01/20 01:25:42;;;;;;;3.45;2.17;;;;;;;4.96;54.48;99958.72;5011993;28;20552;-72
2021/01/20 01:28:13;;;;;;;3.97;1.95;;;;;;;5.00;54.45;99957.53;5012018;28;20026;-72
2021/01/20 01:30:38;;;;;;;3.38;1.75;;;;;;;5.10;54.11;99964.47;5009752;28;20030;-72
2021/01/20 01:33:04;;;;;;;3.00;1.83;;;;;;;5.06;54.33;99964.88;5006709;28;20029;-72
2021/01/20 01:35:30;;;;;;;4.43;1.85;;;;;;;5.14;54.27;99970.28;5006545;28;20034;-73
2021/01/20 01:37:55;;;;;;;3.50;2.00;;;;;;;5.09;54.07;99957.56;5012692;28;20482;-73
2021/01/20 01:40:20;;;;;;;3.72;1.80;;;;;;;5.29;53.46;99950.63;5011414;28;20033;-71
2021/01/20 01:42:45;;;;;;;3.17;1.95;;;;;;;5.29;53.27;99953.25;5002367;28;20073;-73
2021/01/20 01:45:11;;;;;;;2.90;1.70;;;;;;;5.20;53.87;99943.56;5009078;28;20030;-73
2021/01/20 01:47:37;;;;;;;3.70;2.15;;;;;;;5.28;53.49;99948.97;5008588;28;20504;-73
2021/01/20 01:50:02;;;;;;;3.78;2.08;;;;;;;5.15;54.06;99945.75;5011220;28;20486;-73
2021/01/20 01:52:29;;;;;;;3.22;1.90;;;;;;;5.17;54.05;99941.19;5011091;28;20092;-73
2021/01/20 01:54:55;;;;;;;3.45;2.03;;;;;;;5.14;54.61;99951.13;5011278;28;20088;-73
2021/01/20 01:57:20;;;;;;;4.18;1.90;;;;;;;5.22;54.06;99946.03;5011032;28;21204;-75
2021/01/20 01:59:47;;;;;;;3.50;2.15;;;;;;;5.39;53.24;99944.59;5011042;28;20037;-71
2021/01/20 02:02:13;;;;;;;3.95;2.13;;;;;;;5.24;53.92;99938.88;5010091;28;20044;-73
2021/01/20 02:04:39;;;;;;;3.22;1.90;;;;;;;5.10;54.72;99934.81;5010320;28;20558;-73
2021/01/20 02:07:04;;;;;;;3.90;2.08;;;;;;;5.12;54.58;99938.13;5011237;28;20025;-73
2021/01/20 02:09:30;;;;;;;2.60;1.83;;;;;;;5.18;54.32;99935.00;5009468;28;20034;-73
2021/01/20 02:12:24;;;;;;;4.38;2.00;;;;;;;5.08;54.65;99928.88;5010452;28;20052;-73
2021/01/20 02:14:58;;;;;;;3.40;2.10;;;;;;;5.21;54.43;99932.09;5006907;28;20088;-73
2021/01/20 02:17:37;;;;;;;2.85;1.88;;;;;;;5.14;54.91;99930.16;5008160;28;20042;-73
2021/01/20 02:20:33;;;;;;;3.50;1.92;;;;;;;5.30;54.31;99922.63;5011246;28;20573;-73
2021/01/20 02:23:02;;;;;;;3.05;1.85;;;;;;;5.20;54.96;99922.59;5010226;28;20083;-73
2021/01/20 02:25:56;;;;;;;3.15;1.90;;;;;;;5.18;54.67;99929.75;5010930;28;20025;-72
2021/01/20 02:28:30;;;;;;;2.97;1.80;;;;;;;5.11;55.15;99923.38;5003672;28;20022;-72
2021/01/20 02:30:55;;;;;;;5.57;2.00;;;;;;;5.11;55.06;99918.97;5010611;28;20033;-73
2021/01/20 02:33:23;;;;;;;3.53;1.90;;;;;;;5.20;54.45;99924.38;5009478;28;20024;-73
2021/01/20 02:35:56;;;;;;;3.90;1.90;;;;;;;5.02;55.30;99911.88;5009696;28;20080;-72
2021/01/20 02:38:23;;;;;;;3.90;2.00;;;;;;;5.07;55.01;99917.56;5010663;28;20303;-72
2021/01/20 02:40:48;;;;;;;2.90;1.70;;;;;;;5.16;54.57;99908.09;5010615;28;20498;-73
2021/01/20 02:43:21;;;;;;;3.45;1.90;;;;;;;5.02;55.30;99897.97;5004249;28;20037;-72
2021/01/20 02:45:46;;;;;;;3.35;2.28;;;;;;;5.04;55.05;99906.53;5009737;28;20515;-72
2021/01/20 02:48:11;;;;;;;3.42;1.95;;;;;;;5.17;54.84;99896.63;5004098;28;20032;-72
2021/01/20 02:50:37;;;;;;;3.85;1.92;;;;;;;5.11;54.90;99903.25;5010303;28;20113;-73
2021/01/20 02:53:07;;;;;;;3.63;2.17;;;;;;;5.20;54.77;99900.81;5010730;28;20038;-73
2021/01/20 02:55:33;;;;;;;3.20;1.90;;;;;;;5.18;54.52;99907.97;5009803;28;20030;-73
2021/01/20 02:58:01;;;;;;;3.50;1.95;;;;;;;5.17;54.80;99901.03;5010256;28;20487;-73
2021/01/20 03:00:30;;;;;;;4.15;1.90;;;;;;;5.10;55.22;99895.50;5009641;28;20088;-73
2021/01/20 03:02:57;;;;;;;3.83;1.83;;;;;;;5.13;54.93;99889.19;5010002;28;20063;-73
2021/01/20 03:05:23;;;;;;;3.20;2.20;;;;;;;5.07;55.08;99895.78;5009892;28;20026;-73
2021/01/20 03:07:50;;;;;;;4.55;2.25;;;;;;;5.10;55.10;99893.72;5010700;28;20506;-73
2021/01/20 03:10:17;;;;;;;4.00;1.98;;;;;;;5.03;55.41;99889.13;5009165;28;20478;-73
2021/01/20 03:12:43;;;;;;;4.70;2.53;;;;;;;5.03;55.51;99894.38;5009071;28;20026;-73
2021/01/20 03:15:39;;;;;;;5.40;2.10;;;;;;;5.04;55.51;99901.28;5010382;28;20056;-73
2021/01/20 03:18:05;;;;;;;3.47;1.98;;;;;;;5.08;55.33;99892.19;5000012;28;20109;-73
2021/01/20 03:20:36;;;;;;;3.92;1.83;;;;;;;4.99;55.66;99885.94;5010157;28;20022;-73
2021/01/20 03:23:02;;;;;;;3.03;2.10;;;;;;;5.10;55.31;99878.00;5010538;28;20095;-73
2021/01/20 03:25:28;;;;;;;5.53;2.22;;;;;;;5.07;55.35;99880.03;5010138;28;20025;-73
2021/01/20 03:27:53;;;;;;;2.88;2.00;;;;;;;5.15;54.89;99879.38;5009926;28;20025;-73
2021/01/20 03:30:19;;;;;;;3.95;1.95;;;;;;;5.01;55.86;99872.72;5009512;28;20052;-73
2021/01/20 03:32:45;;;;;;;3.72;1.92;;;;;;;5.04;55.65;99878.53;5007557;28;20486;-73
2021/01/20 03:35:10;;;;;;;4.35;1.92;;;;;;;5.02;55.66;99877.81;5010273;28;20195;-73
2021/01/20 03:37:37;;;;;;;3.42;1.80;;;;;;;5.01;55.62;99870.09;5010231;28;20486;-73
2021/01/20 03:40:04;;;;;;;3.15;1.80;;;;;;;4.92;56.16;99873.50;5010327;28;20372;-72
2021/01/20 03:42:29;;;;;;;3.45;1.90;;;;;;;5.02;55.75;99866.50;5000797;28;20035;-73
2021/01/20 03:44:55;;;;;;;3.30;2.00;;;;;;;5.05;55.79;99863.63;4990158;28;20377;-73
2021/01/20 03:47:20;;;;;;;3.65;2.10;;;;;;;5.04;55.79;99868.03;5001762;28;20030;-72
2021/01/20 03:49:45;;;;;;;3.40;1.73;;;;;;;4.95;56.17;99862.75;4999457;28;20032;-73
2021/01/20 03:52:10;;;;;;;4.30;2.38;;;;;;;4.93;56.48;99857.66;5009907;28;20109;-73
2021/01/20 03:54:36;;;;;;;4.25;2.15;;;;;;;5.22;55.47;99867.41;5010405;28;20121;-73
2021/01/20 03:57:02;;;;;;;4.72;2.17;;;;;;;5.17;55.58;99851.25;5007497;28;20034;-72
2021/01/20 03:59:27;;;;;;;2.88;2.00;;;;;;;5.18;55.67;99847.69;5009403;28;20032;-72
2021/01/20 04:01:53;;;;;;;3.70;1.92;;;;;;;5.06;56.09;99841.72;5009459;28;20046;-73
2021/01/20 04:04:18;;;;;;;3.28;2.10;;;;;;;4.96;56.52;99853.94;4995393;28;20037;-73
2021/01/20 04:06:45;;;;;;;3.38;1.85;;;;;;;4.97;56.57;99848.56;5009779;28;20068;-73
2021/01/20 04:09:10;;;;;;;3.45;2.10;;;;;;;5.04;56.35;99843.63;5008420;28;20021;-73
2021/01/20 04:11:36;;;;;;;3.10;1.58;;;;;;;4.96;56.56;99843.44;4991759;28;20447;-73
2021/01/20 04:14:01;;;;;;;2.58;1.55;;;;;;;4.94;56.65;99837.53;4994618;28;20467;-73
2021/01/20 04:16:26;;;;;;;2.88;1.83;;;;;;;5.01;56.55;99838.66;5009471;28;20029;-73
2021/01/20 04:18:52;;;;;;;3.00;1.80;;;;;;;4.95;56.65;99844.44;5008649;28;20034;-73
2021/01/20 04:21:17;;;;;;;2.20;1.38;;;;;;;4.90;56.64;99837.78;4990673;28;20053;-73
2021/01/20 04:23:42;;;;;;;3.45;2.10;;;;;;;5.00;56.22;99842.22;5008940;28;20032;-73
2021/01/20 04:26:08;;;;;;;3.15;1.80;;;;;;;4.88;57.14;99841.50;5009397;28;20450;-73
2021/01/20 04:28:36;;;;;;;4.05;1.67;;;;;;;4.83;57.13;99841.06;5002219;28;20036;-73
2021/01/20 04:31:02;;;;;;;2.97;1.70;;;;;;;4.81;57.44;99840.38;4988019;28;20451;-73
2021/01/20 04:33:27;;;;;;;3.28;1.70;;;;;;;4.89;57.11;99840.56;5003776;28;20033;-73
2021/01/20 04:35:53;;;;;;;4.30;2.00;;;;;;;5.10;56.02;99833.47;5009537;28;20375;-73
2021/01/20 04:38:18;;;;;;;3.38;1.77;;;;;;;4.93;56.75;99828.81;5008641;28;20308;-73
2021/01/20 04:40:43;;;;;;;4.22;1.63;;;;;;;4.96;56.65;99830.34;5011373;28;20025;-73
2021/01/20 04:43:09;;;;;;;4.43;1.80;;;;;;;4.98;56.45;99817.94;5007084;28;20036;-73
2021/01/20 04:45:34;;;;;;;2.95;1.70;;;;;;;5.00;56.51;99822.09;5006461;28;20133;-72
2021/01/20 04:48:02;;;;;;;2.63;1.80;;;;;;;5.06;56.11;99820.75;5013386;28;20052;-73
2021/01/20 04:50:30;;;;;;;2.88;1.60;;;;;;;4.98;56.33;99813.56;5013296;28;20029;-73
2021/01/20 04:53:00;;;;;;;2.47;1.65;;;;;;;4.87;56.85;99811.03;5012567;28;20056;-73
2021/01/20 04:55:27;;;;;;;2.38;1.50;;;;;;;4.93;56.42;99809.66;5012468;28;20014;-73
2021/01/20 04:57:53;;;;;;;2.95;1.60;;;;;;;4.97;56.19;99811.88;5013285;28;20036;-73
2021/01/20 05:00:19;;;;;;;2.65;1.48;;;;;;;5.12;55.65;99801.84;5011621;28;20021;-73
2021/01/20 05:02:45;;;;;;;3.28;1.60;;;;;;;5.14;55.51;99794.69;5009997;28;20041;-73
2021/01/20 05:05:11;;;;;;;3.25;1.95;;;;;;;5.19;55.20;99796.91;5011990;28;20033;-73
2021/01/20 05:07:36;;;;;;;3.03;1.70;;;;;;;5.26;55.15;99803.28;5012624;28;20093;-73
2021/01/20 05:10:02;;;;;;;4.97;1.70;;;;;;;5.21;55.59;99805.47;5008271;28;20120;-73
2021/01/20 05:12:42;;;;;;;3.10;1.63;;;;;;;5.17;55.79;99804.91;5012424;28;20424;-73
2021/01/20 05:15:09;;;;;;;2.33;1.50;;;;;;;5.16;55.93;99805.88;4983622;28;20033;-73
2021/01/20 05:17:36;;;;;;;3.35;1.80;;;;;;;5.26;55.33;99790.97;5011883;28;20128;-73
2021/01/20 05:20:04;;;;;;;2.33;1.58;;;;;;;5.19;55.68;99791.66;5012570;28;20172;-73
2021/01/20 05:22:30;;;;;;;2.40;1.60;;;;;;;5.19;55.74;99799.53;5010655;28;20033;-73
2021/01/20 05:25:00;;;;;;;2.95;1.70;;;;;;;5.16;55.86;99798.00;5011810;28;20025;-73
2021/01/20 05:27:27;;;;;;;2.95;1.60;;;;;;;5.10;56.17;99793.28;5012240;28;20037;-73
2021/01/20 05:30:05;;;;;;;2.45;1.38;;;;;;;5.13;55.92;99795.66;5012523;28;20503;-73
2021/01/20 05:32:30;;;;;;;2.75;1.55;;;;;;;5.15;55.98;99798.97;5010905;28;20554;-73
2021/01/20 05:35:05;;;;;;;3.70;1.60;;;;;;;5.19;55.56;99797.72;5011055;28;20102;-73
2021/01/20 05:37:31;;;;;;;2.35;1.50;;;;;;;5.33;55.10;99801.75;5012396;28;20050;-73
2021/01/20 05:40:11;;;;;;;3.35;1.60;;;;;;;5.25;55.53;99794.59;5012263;28;20034;-73
2021/01/20 05:42:52;;;;;;;2.85;1.60;;;;;;;5.25;55.26;99794.59;5003492;28;20076;-73
2021/01/20 05:45:19;;;;;;;2.58;1.42;;;;;;;5.29;55.55;99801.22;5004636;28;20069;-74
2021/01/20 05:48:03;;;;;;;2.60;1.50;;;;;;;5.34;55.34;99800.81;5004057;28;20506;-73
2021/01/20 05:50:29;;;;;;;3.20;1.70;;;;;;;5.29;55.51;99800.38;5010043;28;20040;-74
2021/01/20 05:53:11;;;;;;;2.47;1.60;;;;;;;5.26;55.59;99801.47;5011777;28;20566;-73
2021/01/20 05:55:38;;;;;;;2.80;1.60;;;;;;;5.37;55.25;99799.72;5011809;28;20022;-73
2021/01/20 05:58:05;;;;;;;1.90;1.20;;;;;;;5.44;55.09;99799.03;5011433;28;20026;-73
2021/01/20 06:00:31;;;;;;;4.28;1.88;;;;;;;5.45;54.97;99787.56;5010380;28;20029;-73
2021/01/20 06:02:57;;;;;;;2.90;1.55;;;;;;;5.44;55.03;99791.16;5010942;28;20502;-73
2021/01/20 06:05:25;;;;;;;2.75;1.70;;;;;;;5.48;55.08;99792.56;5011318;28;20034;-73
2021/01/20 06:07:52;;;;;;;3.13;1.42;;;;;;;5.40;55.31;99786.31;5010974;28;20026;-73
2021/01/20 06:10:22;;;;;;;2.30;1.50;;;;;;;5.35;55.74;99791.97;5001818;28;20030;-73
2021/01/20 06:12:48;;;;;;;2.63;1.50;;;;;;;5.37;55.39;99790.03;5003646;28;20030;-73
2021/01/20 06:15:14;;;;;;;2.72;1.60;;;;;;;5.53;54.77;99787.72;5009684;28;20064;-73
2021/01/20 06:17:45;;;;;;;2.35;1.40;;;;;;;5.48;54.82;99787.31;5009154;28;20058;-73
2021/01/20 06:20:11;;;;;;;3.38;1.60;;;;;;;5.62;53.83;99791.28;5011081;28;20022;-73
2021/01/20 06:22:46;;;;;;;4.43;1.60;;;;;;;5.65;53.83;99780.53;5008411;28;20104;-73
2021/01/20 06:25:29;;;;;;;2.90;1.50;;;;;;;5.74;53.57;99779.72;5004422;28;20038;-73
2021/01/20 06:28:08;;;;;;;4.00;1.60;;;;;;;5.67;53.35;99781.25;4991938;28;20027;-73
2021/01/20 06:30:39;;;;;;;2.42;1.42;;;;;;;5.63;53.96;99777.22;5000274;28;20073;-73
2021/01/20 06:33:07;;;;;;;3.55;1.40;;;;;;;5.62;53.77;99772.94;5006053;28;20018;-73
2021/01/20 06:35:44;;;;;;;3.17;1.80;;;;;;;5.72;53.04;99765.06;5008173;28;20099;-73
2021/01/20 06:38:33;;;;;;;2.17;1.55;;;;;;;5.74;52.65;99763.13;5010975;28;20037;-73
2021/01/20 06:41:03;;;;;;;3.95;1.98;;;;;;;5.83;52.58;99764.91;5010917;28;20387;-73
2021/01/20 06:43:34;;;;;;;3.03;1.60;;;;;;;5.87;52.22;99765.47;4995409;28;20468;-73
2021/01/20 06:46:18;;;;;;;;;;;;;;;5.83;52.34;99757.03;4972344;28;20027;-73
2021/01/20 06:48:55;;;;;;;2.20;1.40;;;;;;;5.93;52.18;99747.38;4996630;28;20064;-73
2021/01/20 06:51:24;;;;;;;2.05;1.33;;;;;;;5.95;52.16;99749.88;5010918;28;20030;-73
2021/01/20 06:54:02;;;;;;;2.40;1.48;;;;;;;6.00;51.63;99762.56;5007766;28;20528;-73
2021/01/20 06:56:45;;;;;;;3.47;1.80;;;;;;;6.19;50.68;99765.16;5010939;28;20033;-72
2021/01/20 06:59:39;;;;;;;2.83;1.70;;;;;;;6.10;51.45;99753.72;5010953;28;20351;-72
2021/01/20 07:02:05;;;;;;;3.92;1.50;;;;;;;6.04;51.62;99758.72;5000464;28;20034;-73
2021/01/20 07:04:39;;;;;;;4.03;1.90;;;;;;;6.05;51.63;99766.41;5010078;28;20057;-73
2021/01/20 07:07:08;;;;;;;2.30;1.50;;;;;;;6.01;51.86;99751.94;5007261;28;20292;-73
2021/01/20 07:09:49;;;;;;;3.20;1.48;;;;;;;5.93;52.41;99746.53;4991819;28;20041;-73
2021/01/20 07:12:18;;;;;;;2.97;2.10;;;;;;;6.04;51.86;99754.28;4991127;28;20022;-73
2021/01/20 07:14:44;;;;;;;2.55;1.60;;;;;;;5.99;52.22;99751.25;4991279;28;20044;-73
2021/01/20 07:17:11;;;;;;;2.50;1.42;;;;;;;5.95;52.15;99761.19;5003045;28;20030;-73
2021/01/20 07:19:38;;;;;;;4.93;1.52;;;;;;;6.16;51.26;99762.81;4996262;28;20153;-73
2021/01/20 07:22:04;;;;;;;2.08;1.40;;;;;;;6.04;51.87;99762.16;5001173;28;20108;-73
2021/01/20 07:24:29;;;;;;;2.38;1.60;;;;;;;6.08;51.65;99770.59;5000316;28;20480;-73
2021/01/20 07:26:55;;;;;;;2.78;1.50;;;;;;;6.10;51.39;99752.88;5010429;28;20137;-73
2021/01/20 07:29:24;;;;;;;2.42;1.50;;;;;;;6.25;50.82;99759.34;5012420;28;20030;-73
2021/01/20 07:31:51;;;;;;;4.80;2.45;;;;;;;6.35;50.78;99762.75;5009217;28;20034;-73
2021/01/20 07:34:17;;;;;;;3.60;1.77;;;;;;;6.13;51.64;99752.63;4998816;28;20431;-73
2021/01/20 07:36:44;;;;;;;3.88;1.75;;;;;;;6.09;52.03;99754.69;4997177;28;20030;-73
2021/01/20 07:39:23;;;;;;;2.85;1.70;;;;;;;6.14;52.18;99754.25;4990867;28;20034;-73
2021/01/20 07:41:56;;;;;;;4.35;2.28;;;;;;;6.12;52.58;99749.13;4996398;28;20023;-73
2021/01/20 07:44:22;;;;;;;2.70;1.83;;;;;;;6.24;52.06;99751.59;4989224;28;20034;-73
2021/01/20 07:47:01;;;;;;;3.35;1.70;;;;;;;6.05;52.91;99744.59;4991619;28;20022;-72
2021/01/20 07:49:27;;;;;;;3.25;1.60;;;;;;;6.07;52.77;99742.66;4995475;28;20026;-73
2021/01/20 07:52:05;;;;;;;2.95;1.90;;;;;;;6.03;52.96;99733.41;5003687;28;20025;-73
2021/01/20 07:54:48;;;;;;;3.92;1.88;;;;;;;6.03;53.29;99722.91;4990796;28;20026;-72
2021/01/20 07:57:20;;;;;;;3.25;1.70;;;;;;;6.04;53.65;99732.47;4998819;28;20037;-73
2021/01/20 08:00:05;;;;;;;4.70;1.77;;;;;;;6.02;53.63;99734.41;4993377;28;20030;-72
2021/01/20 08:02:30;;;;;;;2.60;1.52;;;;;;;6.06;53.19;99720.03;4994304;28;20380;-72
2021/01/20 08:04:59;;;;;;;3.40;1.60;;;;;;;6.08;53.10;99731.22;4988759;28;20042;-72
2021/01/20 08:07:25;;;;;;;2.40;1.45;;;;;;;6.04;53.38;99730.66;4990793;28;20109;-72
2021/01/20 08:09:50;;;;;;;3.28;1.38;;;;;;;6.02;53.80;99726.53;4989323;28;20109;-72
2021/01/20 08:12:29;;;;;;;3.38;1.50;;;;;;;6.03;53.96;99729.03;4990070;28;20050;-72
2021/01/20 08:14:55;;;;;;;2.17;1.38;;;;;;;6.12;53.35;99720.25;4992325;28;20096;-72
2021/01/20 08:17:21;;;;;;;2.50;1.50;;;;;;;6.08;53.29;99724.16;4996228;28;20511;-72
2021/01/20 08:19:48;;;;;;;2.28;1.30;;;;;;;6.12;52.77;99722.06;4993670;28;20305;-72
2021/01/20 08:22:15;;;;;;;2.38;1.55;;;;;;;6.37;51.67;99731.13;5001935;28;20383;-71
2021/01/20 08:24:47;;;;;;;3.83;1.55;;;;;;;6.32;52.10;99717.59;5000186;28;20465;-71
2021/01/20 08:27:14;;;;;;;2.47;1.40;;;;;;;6.34;52.38;99728.75;5002518;28;20022;-73
2021/01/20 08:29:50;;;;;;;2.78;1.88;;;;;;;6.51;51.72;99722.75;4996218;28;20034;-73
2021/01/20 08:32:15;;;;;;;3.83;1.50;;;;;;;6.39;52.02;99721.31;4995321;28;20069;-72
2021/01/20 08:34:43;;;;;;;3.42;1.67;;;;;;;6.39;52.79;99731.81;4995536;28;20026;-72
2021/01/20 08:37:11;;;;;;;3.47;1.60;;;;;;;6.41;52.67;99727.22;4994527;28;20026;-72
2021/01/20 08:39:50;;;;;;;2.45;1.55;;;;;;;6.42;52.95;99738.56;4996090;28;20030;-73
2021/01/20 08:42:29;;;;;;;2.35;1.45;;;;;;;6.41;52.95;99742.97;4995254;28;20027;-72
2021/01/20 08:45:07;;;;;;;2.22;1.40;;;;;;;6.43;52.42;99733.16;4993589;28;20434;-72
2021/01/20 08:47:34;;;;;;;2.60;1.42;;;;;;;6.43;52.73;99733.16;4994776;28;20054;-72
2021/01/20 08:49:59;;;;;;;2.88;1.65;;;;;;;6.40;53.03;99728.19;4993806;28;20060;-72
2021/01/20 08:52:24;;;;;;;2.58;1.55;;;;;;;6.51;52.12;99725.38;4995098;28;20438;-73
2021/01/20 08:54:53;;;;;;;3.08;1.52;;;;;;;6.49;52.07;99723.88;4995347;28;20106;-72
2021/01/20 08:57:20;;;;;;;2.70;1.67;;;;;;;6.42;53.22;99717.56;4995378;28;20507;-72
2021/01/20 08:59:52;;;;;;;2.90;1.40;;;;;;;6.44;52.74;99713.81;4995377;28;20027;-72
2021/01/20 09:02:19;;;;;;;2.60;1.45;;;;;;;6.49;52.88;99713.38;4994678;28;20118;-72
2021/01/20 09:04:48;;;;;;;3.20;1.42;;;;;;;6.54;52.66;99717.22;4995274;28;20034;-71
2021/01/20 09:07:14;;;;;;;2.63;1.45;;;;;;;6.55;52.80;99710.16;4995442;28;20022;-72
2021/01/20 09:09:40;;;;;;;2.78;1.42;;;;;;;6.61;52.81;99709.56;4993590;28;20113;-72
2021/01/20 09:12:05;;;;;;;2.80;1.67;;;;;;;6.72;52.19;99705.91;4994821;28;20267;-72
2021/01/20 09:14:31;;;;;;;3.78;1.50;;;;;;;6.81;51.75;99702.41;4994860;28;20018;-72
2021/01/20 09:16:59;;;;;;;2.72;1.50;;;;;;;6.80;51.89;99701.59;4994919;28;20029;-72
2021/01/20 09:19:25;;;;;;;2.03;1.30;;;;;;;6.92;51.09;99699.56;4995890;28;20022;-72
2021/01/20 09:21:50;;;;;;;3.20;1.70;;;;;;;6.86;51.83;99702.78;4993539;28;20037;-75
2021/01/20 09:24:15;;;;;;;2.95;1.60;;;;;;;6.99;51.14;99690.13;4994909;28;20484;-73
2021/01/20 09:26:41;;;;;;;2.55;1.48;;;;;;;7.04;50.98;99692.31;4994133;28;20023;-73
2021/01/20 09:29:06;;;;;;;2.70;1.70;;;;;;;7.15;50.20;99685.97;4994954;28;20058;-73
2021/01/20 09:31:31;;;;;;;2.30;1.42;;;;;;;7.14;50.50;99690.41;4992766;28;20041;-72
2021/01/20 09:33:56;;;;;;;2.50;1.60;;;;;;;7.27;50.12;99689.22;4994049;28;20026;-72
2021/01/20 09:36:22;;;;;;;2.88;1.60;;;;;;;7.39;50.01;99678.31;4992688;28;20022;-72
2021/01/20 09:38:47;;;;;;;3.42;1.30;;;;;;;7.27;50.75;99683.94;4993948;28;20030;-72
2021/01/20 09:41:12;;;;;;;4.30;1.80;;;;;;;7.37;50.64;99682.09;4992269;28;20022;-72
2021/01/20 09:43:39;;;;;;;3.83;1.70;;;;;;;7.32;50.80;99679.09;4993491;28;20022;-72
2021/01/20 09:46:05;;;;;;;2.70;1.60;;;;;;;7.45;50.72;99682.13;4994203;28;20437;-72
2021/01/20 09:48:30;;;;;;;3.03;1.70;;;;;;;7.47;50.63;99674.94;4994246;28;20067;-73
2021/01/20 09:50:55;;;;;;;3.65;1.92;;;;;;;7.55;50.47;99671.53;4993699;28;20049;-72
2021/01/20 09:53:20;;;;;;;5.32;1.90;;;;;;;7.55;50.62;99674.97;4991807;28;20538;-73
2021/01/20 09:55:46;;;;;;;3.55;2.20;;;;;;;7.62;50.56;99668.13;4993233;28;20049;-73
2021/01/20 09:58:11;;;;;;;3.83;2.28;;;;;;;7.52;51.02;99666.56;4993663;28;20379;-73
2021/01/20 10:00:37;;;;;;;3.33;2.08;;;;;;;7.60;50.99;99656.09;4993004;28;20046;-73
2021/01/20 10:03:06;;;;;;;4.78;2.50;;;;;;;7.71;51.02;99660.28;4995358;28;20361;-73
2021/01/20 10:05:31;;;;;;;3.47;2.00;;;;;;;7.86;49.90;99658.72;4995389;28;20032;-73
2021/01/20 10:07:57;;;;;;;4.22;1.80;;;;;;;7.88;50.25;99651.50;4994465;28;20053;-73
2021/01/20 10:10:22;;;;;;;3.13;1.58;;;;;;;7.82;50.79;99658.22;4996723;28;20101;-73
2021/01/20 10:12:49;;;;;;;3.08;1.60;;;;;;;7.90;50.65;99646.09;4998202;28;20085;-74
2021/01/20 10:15:15;;;;;;;3.20;1.70;;;;;;;7.96;50.67;99646.31;5015931;28;20057;-74
2021/01/20 10:17:40;;;;;;;3.80;1.67;;;;;;;8.04;50.30;99651.59;5014609;28;20022;-73
2021/01/20 10:20:06;;;;;;;3.28;1.52;;;;;;;8.04;50.17;99640.25;5013753;28;20447;-73
2021/01/20 10:22:32;;;;;;;2.92;1.50;;;;;;;8.08;50.45;99639.78;5014053;28;20057;-73
2021/01/20 10:24:57;;;;;;;3.45;1.55;;;;;;;8.18;50.60;99636.22;5014347;28;20029;-73
2021/01/20 10:27:22;;;;;;;2.70;1.50;;;;;;;8.31;50.00;99636.56;5012513;28;20022;-72
2021/01/20 10:29:49;;;;;;;2.40;1.48;;;;;;;8.39;49.58;99635.78;5014625;28;20057;-73
2021/01/20 10:32:14;;;;;;;3.67;1.83;;;;;;;8.34;49.98;99630.97;5013836;28;20092;-73
2021/01/20 10:34:39;;;;;;;3.30;1.65;;;;;;;8.36;49.99;99620.28;4996825;28;20023;-73
2021/01/20 10:37:05;;;;;;;2.47;1.65;;;;;;;8.52;49.13;99614.28;4994008;28;20107;-73
2021/01/20 10:39:30;;;;;;;5.82;1.90;;;;;;;8.50;49.11;99603.91;4993991;28;20057;-73
2021/01/20 10:41:55;;;;;;;3.72;1.90;;;;;;;8.52;49.25;99603.75;4993566;28;20034;-72
2021/01/20 10:44:21;;;;;;;3.38;1.95;;;;;;;8.47;49.78;99597.16;4992941;28;20394;-73
2021/01/20 10:46:47;;;;;;;3.72;1.60;;;;;;;8.56;49.38;99591.91;4993869;28;20031;-72
2021/01/20 10:49:13;;;;;;;2.90;1.35;;;;;;;8.48;49.90;99590.06;4994257;28;20023;-72
2021/01/20 10:51:38;;;;;;;3.90;2.10;;;;;;;8.55;49.79;99577.88;4992016;28;20057;-73
2021/01/20 10:54:04;;;;;;;2.60;1.45;;;;;;;8.56;50.48;99578.75;4992265;28;20030;-72
2021/01/20 10:56:30;;;;;;;3.30;1.70;;;;;;;8.59;50.02;99576.59;4993615;28;20495;-73
2021/01/20 10:58:56;;;;;;;2.40;1.52;;;;;;;8.62;50.21;99573.63;4994784;28;20097;-72
2021/01/20 11:01:22;;;;;;;4.28;1.60;;;;;;;8.63;50.47;99577.09;4993482;28;20074;-73
2021/01/20 11:03:47;;;;;;;4.18;1.80;;;;;;;8.85;49.33;99567.72;4993872;28;20019;-73
2021/01/20 11:06:13;;;;;;;3.92;1.80;;;;;;;8.86;49.21;99564.91;4993350;28;20047;-73
2021/01/20 11:08:39;;;;;;;2.40;1.40;;;;;;;8.85;49.34;99563.28;4992401;28;20030;-73
2021/01/20 11:11:06;;;;;;;3.75;1.60;;;;;;;8.97;49.18;99561.13;4993403;28;20109;-73
2021/01/20 11:13:31;;;;;;;3.28;1.60;;;;;;;8.92;49.64;99555.53;4993823;28;20022;-73
2021/01/20 11:15:57;;;;;;;3.63;1.73;;;;;;;8.92;49.75;99547.63;4993199;28;20068;-73
2021/01/20 11:18:23;;;;;;;4.35;1.90;;;;;;;8.98;49.68;99549.59;4992310;28;20030;-73
2021/01/20 11:20:48;;;;;;;4.53;1.70;;;;;;;8.96;50.07;99541.00;4992697;28;20026;-73
2021/01/20 11:23:17;;;;;;;3.22;1.60;;;;;;;9.05;49.67;99540.03;4995379;28;20033;-72
2021/01/20 11:25:48;;;;;;;2.88;1.60;;;;;;;9.03;49.94;99542.00;4996283;28;20109;-73
2021/01/20 11:28:14;;;;;;;2.70;1.55;;;;;;;9.20;49.79;99537.56;4995008;28;20046;-74
2021/01/20 11:30:40;;;;;;;3.45;1.60;;;;;;;9.21;49.84;99530.47;4993387;28;20042;-73
2021/01/20 11:33:07;;;;;;;2.67;1.33;;;;;;;9.20;49.41;99527.00;4993829;28;20022;-73
2021/01/20 11:35:32;;;;;;;2.75;1.20;;;;;;;9.25;49.99;99513.31;4994192;28;20018;-73
2021/01/20 11:37:58;;;;;;;3.20;1.60;;;;;;;9.35;49.47;99504.19;4994862;28;20166;-73
2021/01/20 11:40:27;;;;;;;2.47;1.63;;;;;;;9.43;48.79;99508.63;4993142;28;20030;-73
2021/01/20 11:42:57;;;;;;;2.58;1.48;;;;;;;9.45;49.12;99506.66;4993222;28;20041;-73
2021/01/20 11:45:30;;;;;;;2.95;1.60;;;;;;;9.45;49.27;99498.72;4993141;28;20037;-73